KPKB/PKB METAR and TAF weather

Enter ICAO airport designator
Station Type Date Time Source
KPKB METAR 2020/08/12 18:53 UTC NOAA

KPKB 121853Z VRB03KT 10SM FEW045 31/18 A3006 RMK AO2 SLP170 T03110183 $


Station Type Date Time Source
KPKB Decoded METAR 2020/08/12 18:53 UTC NOAA

MID-OHIO VALLEY RGNL AIRPORT, WV, United States (KPKB) 39-20N 81-27W
Aug 12, 2020 - 02:53 PM EDT / 2020.08.12 1853 UTC
Wind: Variable at 3 MPH (3 KT):0
Visibility: 10 mile(s):0
Sky conditions: mostly clear
Temperature: 88.0 F (31.1 C)
Dew Point: 64.9 F (18.3 C)
Relative Humidity: 46%
Pressure (altimeter): 30.06 in. Hg (1017 hPa)
ob: KPKB 121853Z VRB03KT 10SM FEW045 31/18 A3006 RMK AO2 SLP170 T03110183
cycle: 19

Station Type Date Time Source
KPKB TAF 2020/08/12 18:33 UTC NOAA

TAF KPKB 121730Z 1218/1318 03003KT P6SM SCT050
FM130700 00000KT P6SM BKN180
FM131000 34001KT 3SM BR OVC003
FM131200 00000KT 6SM BR OVC002
FM131300 VRB03KT P6SM BKN150

Example: see airport list